createdAt,value
2022-08-05T00:00:43.760Z,18.4
2022-08-05T00:05:51.671Z,18.32
2022-08-05T00:10:58.852Z,18.26
2022-08-05T00:16:07.201Z,18.33
2022-08-05T00:21:13.839Z,18.33
2022-08-05T00:26:21.028Z,18.22
2022-08-05T00:31:28.862Z,18.14
2022-08-05T00:36:37.007Z,18.12
2022-08-05T00:41:43.259Z,18.04
2022-08-05T00:46:51.099Z,17.96
2022-08-05T00:51:58.939Z,17.94
2022-08-05T00:57:06.644Z,17.83
2022-08-05T01:02:14.633Z,17.76
2022-08-05T01:07:22.413Z,17.73
2022-08-05T01:12:29.306Z,17.76
2022-08-05T01:17:37.571Z,17.78
2022-08-05T01:22:44.646Z,17.68
2022-08-05T01:27:52.091Z,17.68
2022-08-05T01:33:00.154Z,17.62
2022-08-05T01:38:08.828Z,17.66
2022-08-05T01:43:16.057Z,17.62
2022-08-05T01:48:22.615Z,17.56
2022-08-05T01:53:30.877Z,17.44
2022-08-05T01:58:37.677Z,17.33
2022-08-05T02:03:44.859Z,17.26
2022-08-05T02:08:52.028Z,17.24
2022-08-05T02:13:58.617Z,17.26
2022-08-05T02:19:06.040Z,17.28
2022-08-05T02:24:17.951Z,17.19
2022-08-05T02:29:26.487Z,17.08
2022-08-05T02:34:34.398Z,17.08
2022-08-05T02:39:43.288Z,17.06
2022-08-05T02:44:50.774Z,17.0
2022-08-05T02:49:58.678Z,16.88
2022-08-05T02:55:06.707Z,16.83
2022-08-05T03:00:15.064Z,16.86
2022-08-05T03:05:22.805Z,16.84
2022-08-05T03:10:29.979Z,16.85
2022-08-05T03:15:37.884Z,16.8
2022-08-05T03:20:45.529Z,16.72
2022-08-05T03:25:54.008Z,16.7
2022-08-05T03:31:02.439Z,16.7
2022-08-05T03:36:10.395Z,16.64
2022-08-05T03:41:19.129Z,16.6
2022-08-05T03:46:26.204Z,16.68
2022-08-05T03:51:34.022Z,16.64
2022-08-05T03:56:41.829Z,16.59
2022-08-05T04:01:48.993Z,16.67
2022-08-05T04:06:57.498Z,16.85
2022-08-05T04:12:06.337Z,17.62
2022-08-05T04:17:14.806Z,18.32
2022-08-05T04:22:21.751Z,19.08
2022-08-05T04:27:29.938Z,19.85
2022-08-05T04:32:37.659Z,20.48
2022-08-05T04:37:45.818Z,21.01
2022-08-05T04:42:53.815Z,21.44
2022-08-05T04:48:00.851Z,21.93
2022-08-05T04:53:09.852Z,22.48
2022-08-05T04:58:17.439Z,23.0
2022-08-05T05:03:25.415Z,23.42
2022-08-05T05:08:33.769Z,23.86
2022-08-05T05:13:40.698Z,24.14
2022-08-05T05:18:48.472Z,24.62
2022-08-05T05:23:55.735Z,25.23
2022-08-05T05:29:04.734Z,25.67
2022-08-05T05:34:12.263Z,25.99
2022-08-05T05:39:19.390Z,26.33
2022-08-05T05:44:27.294Z,26.57
2022-08-05T05:49:34.968Z,26.84
2022-08-05T05:54:43.285Z,27.1
2022-08-05T05:59:50.620Z,27.34
2022-08-05T06:04:57.819Z,27.69
2022-08-05T06:10:08.089Z,27.72
2022-08-05T06:15:15.446Z,28.16
2022-08-05T06:20:23.765Z,28.36
2022-08-05T06:25:31.123Z,28.62
2022-08-05T06:30:39.911Z,29.12
2022-08-05T06:35:47.414Z,29.31
2022-08-05T06:40:53.977Z,29.51
2022-08-05T06:46:01.795Z,29.74
2022-08-05T06:51:10.802Z,29.93
2022-08-05T06:56:18.892Z,30.12
2022-08-05T07:01:26.651Z,30.28
2022-08-05T07:06:34.568Z,30.24
2022-08-05T07:11:42.799Z,30.55
2022-08-05T07:16:50.530Z,30.64
2022-08-05T07:21:57.976Z,30.84
2022-08-05T07:27:07.335Z,30.84
2022-08-05T07:32:15.751Z,30.93
2022-08-05T07:37:23.351Z,31.23
2022-08-05T07:42:31.127Z,31.88
2022-08-05T07:47:39.615Z,32.08
2022-08-05T07:52:47.216Z,32.54
2022-08-05T07:58:00.371Z,32.52
2022-08-05T08:03:08.310Z,32.22
2022-08-05T08:08:16.535Z,32.08
2022-08-05T08:13:25.276Z,32.06
2022-08-05T08:18:31.944Z,32.11
2022-08-05T08:23:39.741Z,32.11
2022-08-05T08:28:47.914Z,32.5
2022-08-05T08:33:55.439Z,32.58
2022-08-05T08:39:03.899Z,32.74
2022-08-05T08:44:11.709Z,33.3
2022-08-05T08:49:20.422Z,33.14
2022-08-05T08:54:28.164Z,33.11
2022-08-05T08:59:35.897Z,33.3
2022-08-05T09:04:43.620Z,33.47
2022-08-05T09:09:50.310Z,33.84
2022-08-05T09:14:59.291Z,34.08
2022-08-05T09:20:07.354Z,34.47
2022-08-05T09:21:38.572Z,34.57
2022-08-05T09:26:44.960Z,34.52
2022-08-05T09:31:53.112Z,34.29
2022-08-05T09:37:01.219Z,34.54
2022-08-05T09:42:09.086Z,34.72
2022-08-05T09:47:16.056Z,34.88
2022-08-05T09:52:23.929Z,35.26
2022-08-05T09:57:30.628Z,35.33
2022-08-05T10:02:38.308Z,35.06
2022-08-05T10:07:45.716Z,35.52
2022-08-05T10:12:53.840Z,35.48
2022-08-05T10:18:02.340Z,35.47
2022-08-05T10:23:10.188Z,35.7
2022-08-05T10:28:17.939Z,35.66
2022-08-05T10:33:26.223Z,35.94
2022-08-05T10:38:33.177Z,35.93
2022-08-05T10:43:41.158Z,35.88
2022-08-05T10:48:49.433Z,35.89
2022-08-05T10:53:56.040Z,36.03
2022-08-05T10:59:04.410Z,36.61
2022-08-05T11:04:12.327Z,36.61
2022-08-05T11:09:18.802Z,36.63
2022-08-05T11:14:25.500Z,36.65
2022-08-05T11:19:33.504Z,36.82
2022-08-05T11:24:41.047Z,36.72
2022-08-05T11:29:50.299Z,37.08
2022-08-05T11:34:59.174Z,37.53
2022-08-05T11:40:06.088Z,38.02
2022-08-05T11:45:14.027Z,37.67
2022-08-05T11:50:22.628Z,37.62
2022-08-05T11:55:30.717Z,37.58
2022-08-05T12:00:39.220Z,37.54
2022-08-05T12:05:46.205Z,36.61
2022-08-05T12:10:54.173Z,36.82
2022-08-05T12:16:02.311Z,36.6
2022-08-05T12:21:10.930Z,37.2
2022-08-05T12:26:17.918Z,37.38
2022-08-05T12:31:26.026Z,37.62
2022-08-05T12:36:33.433Z,37.62
2022-08-05T12:41:40.696Z,37.33
2022-08-05T12:46:48.082Z,37.13
2022-08-05T12:51:55.357Z,37.28
2022-08-05T12:57:02.937Z,37.26
2022-08-05T13:02:10.642Z,36.85
2022-08-05T13:07:17.970Z,37.34
2022-08-05T13:12:25.035Z,37.15
2022-08-05T13:17:31.735Z,37.14
2022-08-05T13:22:39.966Z,37.11
2022-08-05T13:27:46.133Z,37.38
2022-08-05T13:32:53.971Z,37.45
2022-08-05T13:38:02.066Z,37.39
2022-08-05T13:43:09.014Z,37.42
2022-08-05T13:48:17.198Z,37.1
2022-08-05T13:53:25.206Z,37.26
2022-08-05T13:58:31.921Z,37.52
2022-08-05T14:03:40.143Z,37.97
2022-08-05T14:08:49.491Z,38.57
2022-08-05T14:13:57.746Z,38.77
2022-08-05T14:19:06.730Z,39.1
2022-08-05T14:24:13.726Z,38.94
2022-08-05T14:29:21.333Z,38.93
2022-08-05T14:34:28.693Z,38.45
2022-08-05T14:39:36.801Z,38.64
2022-08-05T14:44:43.731Z,38.82
2022-08-05T14:49:51.066Z,38.72
2022-08-05T14:54:58.906Z,38.13
2022-08-05T15:00:06.683Z,37.92
2022-08-05T15:05:13.227Z,37.61
2022-08-05T15:10:21.018Z,37.2
2022-08-05T15:15:28.273Z,36.86
2022-08-05T15:20:36.123Z,36.79
2022-08-05T15:25:43.900Z,36.71
2022-08-05T15:30:50.452Z,36.51
2022-08-05T15:35:57.184Z,36.75
2022-08-05T15:41:04.847Z,37.19
2022-08-05T15:46:12.690Z,37.02
2022-08-05T15:51:18.593Z,36.4
2022-08-05T15:56:24.543Z,35.79
2022-08-05T16:01:32.088Z,35.36
2022-08-05T16:06:39.102Z,34.94
2022-08-05T16:11:46.774Z,34.65
2022-08-05T16:16:54.428Z,34.49
2022-08-05T16:22:02.720Z,34.36
2022-08-05T16:27:11.338Z,34.14
2022-08-05T16:32:18.091Z,33.76
2022-08-05T16:37:25.529Z,33.52
2022-08-05T16:42:33.445Z,33.33
2022-08-05T16:47:41.119Z,33.18
2022-08-05T16:52:47.837Z,33.03
2022-08-05T16:57:55.315Z,32.86
2022-08-05T17:03:02.791Z,32.51
2022-08-05T17:08:09.930Z,32.26
2022-08-05T17:13:17.028Z,31.98
2022-08-05T17:18:23.987Z,31.75
2022-08-05T17:23:31.645Z,31.47
2022-08-05T17:28:38.632Z,31.28
2022-08-05T17:33:46.393Z,31.06
2022-08-05T17:38:53.600Z,30.82
2022-08-05T17:44:00.857Z,30.6
2022-08-05T17:49:08.058Z,30.34
2022-08-05T17:54:15.910Z,30.1
2022-08-05T17:59:23.737Z,30.0
2022-08-05T18:04:30.939Z,29.89
2022-08-05T18:09:38.188Z,29.81
2022-08-05T18:15:23.799Z,29.64
2022-08-05T18:20:32.195Z,29.58
2022-08-05T18:25:40.590Z,29.56
2022-08-05T18:30:49.033Z,29.44
2022-08-05T18:35:56.598Z,29.28
2022-08-05T18:41:04.880Z,29.12
2022-08-05T18:46:19.090Z,28.88
2022-08-05T18:51:27.102Z,28.68
2022-08-05T18:56:35.349Z,28.57
2022-08-05T19:01:43.282Z,28.36
2022-08-05T19:06:51.493Z,28.12
2022-08-05T19:11:58.938Z,28.25
2022-08-05T19:17:06.755Z,28.21
2022-08-05T19:22:15.070Z,28.19
2022-08-05T19:27:22.504Z,28.54
2022-08-05T19:32:30.324Z,28.72
2022-08-05T19:37:38.329Z,28.74
2022-08-05T19:42:46.645Z,28.65
2022-08-05T19:56:24.696Z,28.6
2022-08-05T20:01:32.809Z,28.46
2022-08-05T20:06:39.621Z,28.31
2022-08-05T20:11:47.283Z,28.16
2022-08-05T20:16:54.648Z,27.9
2022-08-05T20:22:01.986Z,27.68
2022-08-05T20:27:09.631Z,27.42
2022-08-05T20:32:17.496Z,27.2
2022-08-05T20:37:25.538Z,27.04
2022-08-05T20:42:33.753Z,26.88
2022-08-05T20:47:42.729Z,26.96
2022-08-05T20:52:56.499Z,26.9
2022-08-05T20:58:04.431Z,26.74
2022-08-05T21:03:12.222Z,26.72
2022-08-05T21:08:19.420Z,26.62
2022-08-05T21:13:26.661Z,26.52
2022-08-05T21:18:35.606Z,26.36
2022-08-05T21:23:44.089Z,26.25
2022-08-05T21:28:51.414Z,26.19
2022-08-05T21:33:58.619Z,26.1
2022-08-05T21:39:08.065Z,26.16
2022-08-05T21:44:16.556Z,26.28
2022-08-05T21:49:24.088Z,26.36
2022-08-05T21:54:31.480Z,26.34
2022-08-05T21:59:38.217Z,26.22
2022-08-05T22:04:45.127Z,26.11
2022-08-05T22:09:51.835Z,26.06
2022-08-05T22:14:59.923Z,26.06
2022-08-05T22:20:07.292Z,25.99
2022-08-05T22:25:15.608Z,25.88
2022-08-05T22:30:21.691Z,25.83
2022-08-05T22:35:29.528Z,26.04
2022-08-05T22:40:37.269Z,26.07
2022-08-05T22:45:45.887Z,26.14
2022-08-05T22:50:54.867Z,26.06
2022-08-05T22:56:01.748Z,26.06
2022-08-05T23:01:08.722Z,26.04
2022-08-05T23:06:16.537Z,25.96
2022-08-05T23:11:24.562Z,25.78
2022-08-05T23:16:32.240Z,25.62
2022-08-05T23:21:38.999Z,25.48
2022-08-05T23:26:46.900Z,25.35
2022-08-05T23:31:53.210Z,25.36
2022-08-05T23:37:01.140Z,25.33
2022-08-05T23:42:09.359Z,25.29
2022-08-05T23:47:16.424Z,25.22
2022-08-05T23:52:22.951Z,25.16
2022-08-05T23:57:31.398Z,25.12
